Time;durP1;ratioP1;P1;durP2;ratioP2;P2;SDS_P1;SDS_P2;PMS_P1;PMS_P2;Temp;Humidity;BMP_temperature;BMP_pressure;BME280_temperature;BME280_humidity;BME280_pressure;Samples;Min_cycle;Max_cycle;Signal;HPM_P1;HPM_P2
2022/03/01 00:00:13;;;;;;;65.40;36.75;;;0.70;99.90;;;;;;5013274;28;20554;-80
2022/03/01 00:02:41;;;;;;;57.10;34.88;;;0.70;99.90;;;;;;5007631;28;20558;-79
2022/03/01 00:05:08;;;;;;;64.85;34.70;;;0.60;99.90;;;;;;5011869;28;20045;-79
2022/03/01 00:07:35;;;;;;;56.83;34.50;;;0.60;99.90;;;;;;4995998;28;20060;-80
2022/03/01 00:10:02;;;;;;;57.20;32.58;;;0.60;99.90;;;;;;5012224;28;20099;-78
2022/03/01 00:12:30;;;;;;;63.63;36.08;;;0.60;99.90;;;;;;5007444;28;20041;-80
2022/03/01 00:14:57;;;;;;;68.35;36.45;;;0.60;99.90;;;;;;5013869;28;20056;-79
2022/03/01 00:17:23;;;;;;;58.85;34.47;;;0.50;99.90;;;;;;4992120;28;20057;-79
2022/03/01 00:19:50;;;;;;;61.05;34.35;;;0.50;99.90;;;;;;5023688;28;20100;-78
2022/03/01 00:22:17;;;;;;;57.33;33.28;;;0.50;99.90;;;;;;4990388;28;20468;-79
2022/03/01 00:24:44;;;;;;;55.30;32.95;;;0.50;99.90;;;;;;4991858;28;20057;-78
2022/03/01 00:27:11;;;;;;;61.58;33.47;;;0.50;99.90;;;;;;5007791;28;20049;-79
2022/03/01 00:29:37;;;;;;;62.50;35.70;;;0.50;99.90;;;;;;5007910;28;20037;-79
2022/03/01 00:32:05;;;;;;;64.85;35.30;;;0.50;99.90;;;;;;4979036;28;20053;-79
2022/03/01 00:34:32;;;;;;;58.58;33.70;;;0.50;99.90;;;;;;4989593;28;20037;-79
2022/03/01 00:36:58;;;;;;;55.88;33.70;;;0.50;99.90;;;;;;4989891;28;20077;-79
2022/03/01 00:39:25;;;;;;;62.42;35.67;;;0.40;99.90;;;;;;4991278;28;20075;-79
2022/03/01 00:41:52;;;;;;;57.45;34.88;;;0.30;99.90;;;;;;5014242;28;20072;-78
2022/03/01 00:44:19;;;;;;;63.80;36.42;;;0.30;99.90;;;;;;5023624;28;20049;-79
2022/03/01 00:46:47;;;;;;;65.57;36.00;;;0.30;99.90;;;;;;5011946;28;20049;-79
2022/03/01 00:49:14;;;;;;;67.57;35.40;;;0.20;99.90;;;;;;5023448;28;20049;-79
2022/03/01 00:51:41;;;;;;;63.42;34.97;;;0.00;99.90;;;;;;5013248;28;20045;-80
2022/03/01 00:54:07;;;;;;;62.42;33.90;;;0.00;99.90;;;;;;5006571;28;20720;-79
2022/03/01 00:56:35;;;;;;;59.75;34.05;;;0.00;99.90;;;;;;4989032;28;20061;-79
2022/03/01 00:59:02;;;;;;;60.65;33.92;;;0.00;99.90;;;;;;5024187;28;20129;-79
2022/03/01 01:01:29;;;;;;;64.88;34.25;;;0.00;99.90;;;;;;4998075;28;20053;-79
2022/03/01 01:03:56;;;;;;;58.90;33.70;;;-0.10;99.90;;;;;;5016735;28;20076;-78
2022/03/01 01:06:23;;;;;;;67.80;35.78;;;-0.10;99.90;;;;;;4988860;28;20190;-79
2022/03/01 01:08:49;;;;;;;65.38;34.47;;;-0.10;99.90;;;;;;5004789;28;20049;-78
2022/03/01 01:11:16;;;;;;;61.53;35.45;;;-0.20;99.90;;;;;;4983105;28;20038;-79
2022/03/01 01:13:43;;;;;;;57.75;33.65;;;-0.10;99.90;;;;;;4977694;28;20046;-79
2022/03/01 01:16:10;;;;;;;66.80;33.05;;;-0.20;99.90;;;;;;5020538;28;20048;-79
2022/03/01 01:18:38;;;;;;;62.60;33.22;;;-0.20;99.90;;;;;;5002869;28;20107;-79
2022/03/01 01:21:05;;;;;;;60.15;32.00;;;-0.10;99.90;;;;;;5021010;28;20053;-78
2022/03/01 01:23:32;;;;;;;64.38;31.83;;;-0.10;99.90;;;;;;4989086;28;20057;-78
2022/03/01 01:25:59;;;;;;;61.53;32.58;;;0.00;99.90;;;;;;5012721;28;20050;-78
2022/03/01 01:28:25;;;;;;;57.83;31.50;;;0.10;99.90;;;;;;5004942;28;20057;-78
2022/03/01 01:30:52;;;;;;;57.55;31.10;;;0.20;99.90;;;;;;5004561;28;20041;-78
2022/03/01 01:33:19;;;;;;;58.17;31.08;;;0.30;99.90;;;;;;5022607;28;20077;-78
2022/03/01 01:35:46;;;;;;;57.72;31.77;;;0.40;99.90;;;;;;5004456;28;20049;-79
2022/03/01 01:38:12;;;;;;;63.53;32.22;;;0.50;99.90;;;;;;5005211;28;20045;-78
2022/03/01 01:40:39;;;;;;;49.83;30.35;;;0.60;99.90;;;;;;5021746;28;20523;-78
2022/03/01 01:43:06;;;;;;;52.90;30.80;;;0.70;99.90;;;;;;4993980;28;20047;-79
2022/03/01 01:45:34;;;;;;;55.75;32.47;;;0.70;99.90;;;;;;5016783;28;20092;-78
2022/03/01 01:48:02;;;;;;;54.92;32.08;;;0.70;99.90;;;;;;4979964;28;20054;-78
2022/03/01 01:50:31;;;;;;;59.45;31.80;;;0.70;99.90;;;;;;4952755;28;20054;-79
2022/03/01 01:52:58;;;;;;;52.03;29.67;;;0.80;99.90;;;;;;4970296;28;20115;-79
2022/03/01 01:55:26;;;;;;;59.50;33.35;;;0.80;99.90;;;;;;4991667;28;20049;-78
2022/03/01 01:57:57;;;;;;;60.50;32.67;;;0.80;99.90;;;;;;5004996;28;20080;-78
2022/03/01 02:00:25;;;;;;;60.10;32.67;;;0.80;99.90;;;;;;4989358;28;20551;-78
2022/03/01 02:02:51;;;;;;;57.80;32.55;;;0.80;99.90;;;;;;4985211;28;20283;-78
2022/03/01 02:05:19;;;;;;;55.65;32.65;;;0.80;99.90;;;;;;5006135;28;20069;-79
2022/03/01 02:07:49;;;;;;;56.25;33.47;;;0.70;99.90;;;;;;4993217;28;20049;-79
2022/03/01 02:10:17;;;;;;;61.20;32.53;;;0.70;99.90;;;;;;4973774;28;20046;-78
2022/03/01 02:12:44;;;;;;;57.10;34.10;;;0.70;99.90;;;;;;4984544;28;20136;-78
2022/03/01 02:15:12;;;;;;;54.22;31.42;;;0.70;99.90;;;;;;4990844;28;20669;-79
2022/03/01 02:17:40;;;;;;;61.50;32.70;;;0.70;99.90;;;;;;5005846;28;20473;-78
2022/03/01 02:20:14;;;;;;;55.88;33.53;;;0.70;99.90;;;;;;5006487;28;20479;-78
2022/03/01 02:22:41;;;;;;;56.05;33.20;;;0.60;99.90;;;;;;4995088;28;20084;-79
2022/03/01 02:25:08;;;;;;;57.83;33.28;;;0.60;99.90;;;;;;5011507;28;20172;-78
2022/03/01 02:27:36;;;;;;;56.03;32.80;;;0.60;99.90;;;;;;4995316;28;20075;-78
2022/03/01 02:30:04;;;;;;;61.58;33.08;;;0.60;99.90;;;;;;4993823;28;20050;-79
2022/03/01 02:32:31;;;;;;;54.10;32.17;;;0.60;99.90;;;;;;4989124;28;20064;-78
2022/03/01 02:34:58;;;;;;;56.67;33.97;;;0.60;99.90;;;;;;4977888;28;20169;-78
2022/03/01 02:37:25;;;;;;;59.88;32.80;;;0.50;99.90;;;;;;4992191;28;20529;-78
2022/03/01 02:39:53;;;;;;;56.95;32.47;;;0.50;99.90;;;;;;4974539;28;20478;-78
2022/03/01 02:42:21;;;;;;;62.55;34.25;;;0.50;99.90;;;;;;4986078;28;20061;-77
2022/03/01 02:44:49;;;;;;;58.97;32.53;;;0.40;99.90;;;;;;5006744;28;20037;-77
2022/03/01 02:47:16;;;;;;;57.17;34.22;;;0.50;99.90;;;;;;4991955;28;20042;-78
2022/03/01 02:49:43;;;;;;;60.10;34.25;;;0.50;99.90;;;;;;5021711;28;20033;-77
2022/03/01 02:52:10;;;;;;;55.63;29.35;;;0.50;99.90;;;;;;5012310;28;20046;-77
2022/03/01 02:54:37;;;;;;;63.53;33.17;;;0.50;99.90;;;;;;4999701;28;20053;-78
2022/03/01 02:57:04;;;;;;;63.13;33.45;;;0.40;99.90;;;;;;5011150;28;20049;-78
2022/03/01 02:59:31;;;;;;;53.35;30.90;;;0.40;99.90;;;;;;5005462;28;20053;-78
2022/03/01 03:01:58;;;;;;;55.30;30.02;;;0.50;99.90;;;;;;4987417;28;20104;-78
2022/03/01 03:04:25;;;;;;;59.38;33.38;;;0.40;99.90;;;;;;4995452;28;20123;-78
2022/03/01 03:06:52;;;;;;;54.83;32.35;;;0.50;99.90;;;;;;4995493;28;20496;-77
2022/03/01 03:09:21;;;;;;;49.97;29.50;;;0.40;99.90;;;;;;5010322;28;20054;-77
2022/03/01 03:11:48;;;;;;;56.22;31.70;;;0.50;99.90;;;;;;5006798;28;20473;-77
2022/03/01 03:14:15;;;;;;;51.17;32.00;;;0.50;99.90;;;;;;4987645;28;20547;-78
2022/03/01 03:16:44;;;;;;;56.40;30.50;;;0.50;99.90;;;;;;5010684;28;20060;-78
2022/03/01 03:19:15;;;;;;;57.50;32.88;;;0.50;99.90;;;;;;4992840;28;20091;-78
2022/03/01 03:21:46;;;;;;;57.63;31.92;;;0.40;99.90;;;;;;5024160;28;20126;-78
2022/03/01 03:24:14;;;;;;;54.65;31.90;;;0.40;99.90;;;;;;5008945;28;20061;-78
2022/03/01 03:26:42;;;;;;;57.80;33.42;;;0.40;99.90;;;;;;5021533;28;20050;-78
2022/03/01 03:29:09;;;;;;;57.30;31.55;;;0.30;99.90;;;;;;5007788;28;20053;-78
2022/03/01 03:31:41;;;;;;;55.97;30.33;;;0.30;99.90;;;;;;5010203;28;20046;-78
2022/03/01 03:34:09;;;;;;;52.72;32.17;;;0.20;99.90;;;;;;4987920;28;20085;-77
2022/03/01 03:36:37;;;;;;;47.38;29.13;;;0.30;99.90;;;;;;4970936;28;20113;-78
2022/03/01 03:39:06;;;;;;;51.13;30.88;;;0.30;99.90;;;;;;5020521;28;20060;-77
2022/03/01 03:41:33;;;;;;;48.90;31.77;;;0.30;99.90;;;;;;4969225;28;20433;-78
2022/03/01 03:44:00;;;;;;;57.40;32.83;;;0.20;99.90;;;;;;4979142;28;20041;-78
2022/03/01 03:46:27;;;;;;;50.22;31.00;;;0.20;99.90;;;;;;4971536;28;20054;-77
2022/03/01 03:48:54;;;;;;;57.30;31.85;;;0.20;99.90;;;;;;5003724;28;20046;-78
2022/03/01 03:51:23;;;;;;;52.13;30.25;;;0.20;99.90;;;;;;5002795;28;20100;-78
2022/03/01 03:53:50;;;;;;;52.35;32.10;;;0.20;99.90;;;;;;4971544;28;20575;-78
2022/03/01 03:56:17;;;;;;;55.35;31.52;;;0.20;99.90;;;;;;4971649;28;20061;-77
2022/03/01 03:58:45;;;;;;;59.85;33.28;;;0.20;99.90;;;;;;4970254;28;20061;-78
2022/03/01 04:01:11;;;;;;;47.88;32.25;;;0.20;99.90;;;;;;4978288;28;20046;-77
2022/03/01 04:03:39;;;;;;;57.22;34.78;;;0.20;99.90;;;;;;4959451;28;20068;-78
2022/03/01 04:06:06;;;;;;;55.58;31.67;;;0.10;99.90;;;;;;4966510;28;20050;-78
2022/03/01 04:08:33;;;;;;;57.67;32.47;;;0.10;99.90;;;;;;4999251;28;20046;-78
2022/03/01 04:11:00;;;;;;;53.70;30.98;;;0.10;99.90;;;;;;4984263;28;20119;-78
2022/03/01 04:13:27;;;;;;;54.38;31.30;;;0.10;99.90;;;;;;4976226;28;20041;-78
2022/03/01 04:15:53;;;;;;;58.47;31.83;;;0.00;99.90;;;;;;4966576;28;20057;-77
2022/03/01 04:18:20;;;;;;;51.45;30.92;;;0.10;99.90;;;;;;4967334;28;20313;-77
2022/03/01 04:20:47;;;;;;;52.55;31.08;;;0.00;99.90;;;;;;4953942;28;20694;-78
2022/03/01 04:23:14;;;;;;;53.92;31.20;;;0.00;99.90;;;;;;4970396;28;20053;-78
2022/03/01 04:25:40;;;;;;;47.35;31.33;;;0.00;99.90;;;;;;4969274;28;20115;-77
2022/03/01 04:28:07;;;;;;;46.25;30.23;;;0.00;99.90;;;;;;4982131;28;20112;-78
2022/03/01 04:30:34;;;;;;;56.47;32.05;;;0.00;99.90;;;;;;4983065;28;20460;-78
2022/03/01 04:33:01;;;;;;;46.67;29.15;;;0.00;99.90;;;;;;4978001;28;20081;-78
2022/03/01 04:35:28;;;;;;;46.42;30.17;;;0.00;99.90;;;;;;4990028;28;20045;-77
2022/03/01 04:37:55;;;;;;;43.95;27.67;;;0.00;99.90;;;;;;5022108;28;20528;-77
2022/03/01 04:40:22;;;;;;;48.58;29.17;;;0.10;99.90;;;;;;5013412;28;20080;-78
2022/03/01 04:42:49;;;;;;;46.50;30.20;;;0.10;99.90;;;;;;4972605;28;20200;-77
2022/03/01 04:45:16;;;;;;;51.58;31.38;;;0.10;99.90;;;;;;4976179;28;20049;-79
2022/03/01 04:47:44;;;;;;;53.33;31.67;;;0.10;99.90;;;;;;4981861;28;20505;-77
2022/03/01 04:50:11;;;;;;;48.13;30.35;;;0.10;99.90;;;;;;4981025;28;20503;-78
2022/03/01 04:52:39;;;;;;;52.00;31.17;;;0.10;99.90;;;;;;4998935;28;20049;-78
2022/03/01 04:55:06;;;;;;;47.28;29.42;;;0.10;99.90;;;;;;5004998;28;20195;-78
2022/03/01 04:57:33;;;;;;;46.03;28.48;;;0.00;99.90;;;;;;4985545;28;20849;-77
2022/03/01 05:00:00;;;;;;;52.88;31.05;;;0.00;99.90;;;;;;5017507;28;20227;-78
2022/03/01 05:02:29;;;;;;;43.85;27.80;;;0.00;99.90;;;;;;5015941;28;20057;-78
2022/03/01 05:04:56;;;;;;;47.38;31.48;;;0.00;99.90;;;;;;5004976;28;20046;-78
2022/03/01 05:07:23;;;;;;;47.03;31.23;;;0.00;99.90;;;;;;5003112;28;20116;-77
2022/03/01 05:09:49;;;;;;;46.35;30.45;;;-0.10;99.90;;;;;;4975682;28;20046;-78
2022/03/01 05:12:17;;;;;;;46.80;32.92;;;-0.10;99.90;;;;;;4997218;28;20038;-77
2022/03/01 05:14:44;;;;;;;49.78;31.40;;;-0.10;99.90;;;;;;4975484;28;20140;-78
2022/03/01 05:17:11;;;;;;;50.40;32.42;;;-0.10;99.90;;;;;;4999742;28;20083;-77
2022/03/01 05:19:38;;;;;;;45.80;30.95;;;-0.10;99.90;;;;;;5002383;28;20057;-79
2022/03/01 05:22:06;;;;;;;49.75;33.17;;;-0.10;99.90;;;;;;5021035;28;20360;-78
2022/03/01 05:24:35;;;;;;;46.88;31.25;;;-0.10;99.90;;;;;;4990983;28;20512;-78
2022/03/01 05:27:02;;;;;;;47.78;32.55;;;-0.20;99.90;;;;;;4989323;28;20138;-78
2022/03/01 05:29:29;;;;;;;43.92;31.55;;;-0.10;99.90;;;;;;5005875;28;20045;-79
2022/03/01 05:31:55;;;;;;;49.38;32.60;;;-0.20;99.90;;;;;;4979414;28;20072;-78
2022/03/01 05:34:22;;;;;;;48.55;32.47;;;-0.20;99.90;;;;;;5003708;28;20076;-77
2022/03/01 05:36:49;;;;;;;45.47;32.38;;;-0.20;99.90;;;;;;5006043;28;20049;-78
2022/03/01 05:39:16;;;;;;;44.53;31.95;;;-0.20;99.90;;;;;;5001291;28;20045;-76
2022/03/01 05:41:42;;;;;;;51.03;32.35;;;-0.20;99.90;;;;;;4983395;28;20560;-77
2022/03/01 05:44:09;;;;;;;45.22;31.67;;;-0.20;99.90;;;;;;4970218;28;20108;-78
2022/03/01 05:46:36;;;;;;;49.03;33.22;;;-0.20;99.90;;;;;;4986446;28;20046;-77
2022/03/01 05:49:03;;;;;;;46.65;32.35;;;-0.30;99.90;;;;;;4989504;28;20070;-77
2022/03/01 05:51:30;;;;;;;48.67;30.67;;;-0.20;99.90;;;;;;5003060;28;20045;-77
2022/03/01 05:53:56;;;;;;;46.13;31.83;;;-0.20;99.90;;;;;;5014437;28;20049;-78
2022/03/01 05:56:23;;;;;;;44.58;31.13;;;-0.20;99.90;;;;;;5011643;28;20052;-78
2022/03/01 05:58:50;;;;;;;39.55;30.45;;;-0.30;99.90;;;;;;5010912;28;20080;-78
2022/03/01 06:01:17;;;;;;;48.15;31.38;;;-0.30;99.90;;;;;;5010027;28;20111;-77
2022/03/01 06:03:44;;;;;;;35.03;26.95;;;-0.30;99.90;;;;;;4994746;28;20719;-78
2022/03/01 06:06:12;;;;;;;46.80;33.17;;;-0.30;99.90;;;;;;5027011;28;20061;-78
2022/03/01 06:08:38;;;;;;;44.78;32.88;;;-0.20;99.90;;;;;;5006492;28;20413;-78
2022/03/01 06:11:05;;;;;;;43.55;32.60;;;-0.20;99.90;;;;;;5000131;28;20125;-78
2022/03/01 06:13:32;;;;;;;49.72;32.60;;;-0.20;99.90;;;;;;4987851;28;20068;-77
2022/03/01 06:16:02;;;;;;;40.47;30.40;;;-0.30;99.90;;;;;;4982682;28;20046;-78
2022/03/01 06:18:29;;;;;;;45.15;32.08;;;-0.30;99.90;;;;;;4971008;28;20047;-78
2022/03/01 06:20:58;;;;;;;47.92;33.80;;;-0.30;99.90;;;;;;4969241;28;20212;-77
2022/03/01 06:23:25;;;;;;;45.13;33.38;;;-0.30;99.90;;;;;;5003109;28;20185;-78
2022/03/01 06:25:52;;;;;;;47.40;33.03;;;-0.30;99.90;;;;;;4988866;28;20104;-78
2022/03/01 06:28:19;;;;;;;43.05;33.58;;;-0.40;99.90;;;;;;5004380;28;20069;-77
2022/03/01 06:30:45;;;;;;;45.65;32.58;;;-0.30;99.90;;;;;;4983749;28;20101;-77
2022/03/01 06:33:12;;;;;;;46.78;33.63;;;-0.40;99.90;;;;;;4989740;28;20041;-78
2022/03/01 06:35:39;;;;;;;43.83;32.70;;;-0.40;99.90;;;;;;5002542;28;20052;-79
2022/03/01 06:38:06;;;;;;;44.10;31.95;;;-0.40;99.90;;;;;;5021553;28;20045;-78
2022/03/01 06:40:33;;;;;;;49.38;34.10;;;-0.40;99.90;;;;;;4992228;28;20041;-77
2022/03/01 06:43:00;;;;;;;39.17;28.50;;;-0.40;99.90;;;;;;4997298;28;20049;-78
2022/03/01 06:45:27;;;;;;;37.75;31.10;;;-0.40;99.90;;;;;;4985017;28;20921;-77
2022/03/01 06:47:54;;;;;;;43.78;31.52;;;-0.40;99.90;;;;;;4978876;28;20282;-78
2022/03/01 06:50:21;;;;;;;40.53;30.95;;;-0.40;99.90;;;;;;4971328;28;20107;-79
2022/03/01 06:52:48;;;;;;;43.17;33.17;;;-0.30;99.90;;;;;;5023992;28;20200;-78
2022/03/01 06:55:15;;;;;;;45.80;31.55;;;-0.30;99.90;;;;;;5008787;28;20037;-77
2022/03/01 06:57:43;;;;;;;42.67;28.33;;;-0.30;99.90;;;;;;5005619;28;20104;-77
2022/03/01 07:00:12;;;;;;;34.63;27.95;;;-0.20;99.90;;;;;;4983102;28;20041;-78
2022/03/01 07:02:40;;;;;;;42.13;31.65;;;-0.20;99.90;;;;;;4991841;28;20070;-79
2022/03/01 07:05:09;;;;;;;41.08;30.77;;;-0.10;99.90;;;;;;4989079;28;20049;-78
2022/03/01 07:07:37;;;;;;;40.72;32.50;;;-0.10;99.90;;;;;;4972471;28;20266;-78
2022/03/01 07:10:06;;;;;;;37.92;29.90;;;0.00;99.90;;;;;;4986792;28;20081;-77
2022/03/01 07:12:33;;;;;;;38.90;29.92;;;0.00;99.90;;;;;;4987333;28;20080;-77
2022/03/01 07:15:00;;;;;;;33.83;28.52;;;0.00;99.90;;;;;;4964990;28;20409;-78
2022/03/01 07:17:26;;;;;;;44.08;32.05;;;0.10;99.90;;;;;;5006796;28;20049;-77
2022/03/01 07:19:53;;;;;;;43.13;33.88;;;0.10;99.90;;;;;;5008804;28;20488;-78
2022/03/01 07:22:20;;;;;;;35.85;32.03;;;0.20;99.90;;;;;;5010185;28;20333;-79
2022/03/01 07:24:47;;;;;;;45.50;34.33;;;0.20;99.90;;;;;;5005506;28;20053;-77
2022/03/01 07:27:14;;;;;;;44.10;32.67;;;0.20;99.90;;;;;;5008757;28;20096;-81
2022/03/01 07:29:41;;;;;;;40.10;35.10;;;0.30;99.90;;;;;;5006406;28;20574;-79
2022/03/01 07:32:09;;;;;;;46.33;35.40;;;0.40;99.90;;;;;;4965017;28;20508;-81
2022/03/01 07:34:36;;;;;;;38.88;34.45;;;0.40;99.90;;;;;;4972375;28;20049;-79
2022/03/01 07:37:04;;;;;;;34.40;30.77;;;0.50;99.90;;;;;;4969922;28;20038;-79
2022/03/01 07:39:31;;;;;;;41.40;35.33;;;0.50;99.90;;;;;;4986771;28;20050;-79
2022/03/01 07:41:58;;;;;;;42.30;35.25;;;0.60;99.90;;;;;;4984595;28;20092;-78
2022/03/01 07:44:25;;;;;;;42.53;35.13;;;0.70;99.90;;;;;;4989383;28;20089;-80
2022/03/01 07:46:52;;;;;;;40.47;34.60;;;0.80;99.90;;;;;;5002063;28;20457;-79
2022/03/01 07:49:19;;;;;;;39.60;34.97;;;0.90;99.90;;;;;;4969425;28;20089;-77
2022/03/01 07:51:46;;;;;;;40.03;34.28;;;0.90;99.90;;;;;;4952657;28;20482;-78
2022/03/01 07:54:12;;;;;;;42.60;36.35;;;1.00;99.90;;;;;;4981697;28;20054;-81
2022/03/01 07:56:40;;;;;;;39.30;34.45;;;1.00;99.90;;;;;;5017444;28;20053;-78
2022/03/01 07:59:07;;;;;;;46.97;36.70;;;1.10;99.90;;;;;;5024212;28;20045;-79
2022/03/01 08:01:34;;;;;;;38.47;34.47;;;1.20;99.90;;;;;;4982803;28;20057;-79
2022/03/01 08:04:01;;;;;;;36.65;32.72;;;1.30;99.90;;;;;;4984277;28;20194;-81
2022/03/01 08:06:28;;;;;;;32.55;29.73;;;1.50;99.90;;;;;;4988321;28;20049;-80
2022/03/01 08:08:55;;;;;;;37.78;33.63;;;1.60;99.90;;;;;;4987790;28;20054;-78
2022/03/01 08:11:21;;;;;;;42.13;35.22;;;1.60;99.90;;;;;;5004259;28;20041;-81
2022/03/01 08:13:48;;;;;;;37.33;33.83;;;1.60;99.90;;;;;;4997132;28;20065;-81
2022/03/01 08:16:15;;;;;;;39.28;34.75;;;1.80;99.90;;;;;;4986761;28;20116;-78
2022/03/01 08:18:43;;;;;;;43.03;35.55;;;1.90;99.90;;;;;;4952948;28;20146;-80
2022/03/01 08:21:09;;;;;;;38.53;34.35;;;2.00;99.90;;;;;;4988241;28;20034;-78
2022/03/01 08:23:36;;;;;;;38.60;34.83;;;2.20;99.90;;;;;;4987722;28;20077;-81
2022/03/01 08:26:04;;;;;;;42.45;35.70;;;2.40;99.90;;;;;;5011954;28;20470;-77
2022/03/01 08:28:32;;;;;;;40.38;36.00;;;2.70;99.90;;;;;;5008283;28;20107;-80
2022/03/01 08:30:59;;;;;;;38.75;34.80;;;3.10;99.90;;;;;;5014125;28;20061;-83
2022/03/01 08:33:26;;;;;;;38.78;34.78;;;3.40;99.90;;;;;;5026121;28;20037;-80
2022/03/01 08:35:55;;;;;;;36.45;32.78;;;3.50;99.90;;;;;;5002320;28;20719;-79
2022/03/01 08:38:23;;;;;;;41.92;37.70;;;3.50;99.90;;;;;;4986870;28;20088;-80
2022/03/01 08:40:50;;;;;;;38.28;34.22;;;3.50;99.90;;;;;;4973927;28;20092;-78
2022/03/01 08:43:17;;;;;;;40.70;36.38;;;3.50;99.90;;;;;;5017662;28;20042;-81
2022/03/01 08:45:45;;;;;;;39.63;35.55;;;3.40;99.90;;;;;;5004650;28;20042;-81
2022/03/01 08:48:12;;;;;;;40.05;35.45;;;3.50;99.90;;;;;;4973586;28;20057;-80
2022/03/01 08:50:39;;;;;;;41.47;36.78;;;3.50;99.90;;;;;;5005168;28;20049;-79
2022/03/01 08:53:16;;;;;;;38.58;34.67;;;3.30;99.90;;;;;;5009618;28;20168;-80
2022/03/01 08:55:43;;;;;;;43.63;38.65;;;3.40;99.90;;;;;;5005341;28;20054;-81
2022/03/01 08:58:10;;;;;;;41.50;37.22;;;3.30;99.90;;;;;;4991965;28;20124;-78
2022/03/01 09:00:37;;;;;;;40.90;36.83;;;3.30;99.90;;;;;;4980639;28;20429;-80
2022/03/01 09:03:05;;;;;;;40.08;35.88;;;3.30;99.90;;;;;;5027509;28;20068;-78
2022/03/01 09:05:33;;;;;;;38.28;34.38;;;3.30;99.90;;;;;;4992024;28;20049;-78
2022/03/01 09:08:00;;;;;;;38.67;34.67;;;3.30;99.90;;;;;;4992112;28;20127;-79
2022/03/01 09:10:27;;;;;;;41.22;37.10;;;3.00;99.90;;;;;;4991427;28;20042;-78
2022/03/01 09:12:55;;;;;;;39.15;35.60;;;3.10;99.90;;;;;;4998451;28;20030;-80
2022/03/01 09:15:22;;;;;;;39.67;35.60;;;3.20;99.90;;;;;;4988523;28;20056;-79
2022/03/01 09:17:51;;;;;;;41.33;37.13;;;3.50;99.90;;;;;;4991863;28;20049;-81
2022/03/01 09:20:19;;;;;;;40.00;35.88;;;3.50;99.90;;;;;;4993504;28;20511;-81
2022/03/01 09:22:45;;;;;;;40.30;35.95;;;3.60;99.90;;;;;;5011304;28;20050;-83
2022/03/01 09:25:13;;;;;;;38.55;34.92;;;3.80;99.90;;;;;;5011170;28;20053;-79
2022/03/01 09:27:39;;;;;;;41.58;37.47;;;3.80;99.90;;;;;;5010278;28;20049;-79
2022/03/01 09:30:07;;;;;;;39.78;35.80;;;3.60;99.90;;;;;;5024638;28;20145;-82
2022/03/01 09:32:34;;;;;;;41.67;37.38;;;3.80;99.90;;;;;;5003137;28;20103;-80
2022/03/01 09:35:02;;;;;;;40.95;37.10;;;4.00;99.90;;;;;;5010083;28;20100;-78
2022/03/01 09:37:32;;;;;;;41.28;37.08;;;4.20;99.90;;;;;;4995230;28;20050;-81
2022/03/01 09:40:00;;;;;;;39.40;35.63;;;4.20;99.90;;;;;;5007641;28;20971;-81
2022/03/01 09:42:27;;;;;;;41.30;37.05;;;4.20;99.90;;;;;;5005616;28;20107;-79
2022/03/01 09:44:55;;;;;;;40.30;36.10;;;4.30;99.90;;;;;;5023569;28;20045;-80
2022/03/01 09:47:22;;;;;;;42.25;38.10;;;4.30;99.90;;;;;;5028316;28;20049;-80
2022/03/01 09:49:50;;;;;;;39.60;35.80;;;4.40;99.90;;;;;;5009418;28;20043;-79
2022/03/01 09:52:18;;;;;;;42.17;37.78;;;4.30;99.90;;;;;;4993965;28;20041;-80
2022/03/01 09:54:48;;;;;;;42.08;37.92;;;4.40;99.90;;;;;;5011098;28;20073;-79
2022/03/01 09:57:17;;;;;;;42.92;38.90;;;4.40;99.90;;;;;;5010307;28;20042;-81
2022/03/01 09:59:44;;;;;;;42.72;38.65;;;4.60;99.90;;;;;;4993753;28;20064;-81
2022/03/01 10:02:11;;;;;;;40.10;36.00;;;4.90;99.90;;;;;;5002170;28;20034;-82
2022/03/01 10:05:09;;;;;;;42.50;38.72;;;5.30;99.90;;;;;;5009853;28;20049;-83
2022/03/01 10:07:42;;;;;;;40.08;36.10;;;5.50;99.90;;;;;;4992250;28;20076;-80
2022/03/01 10:10:16;;;;;;;43.25;39.10;;;5.30;99.90;;;;;;4973417;28;20050;-82
2022/03/01 10:12:44;;;;;;;41.15;37.35;;;5.30;99.90;;;;;;4966533;28;20049;-79
2022/03/01 10:15:13;;;;;;;40.05;36.22;;;5.50;99.90;;;;;;4974082;28;20049;-82
2022/03/01 10:17:43;;;;;;;42.40;38.58;;;5.70;99.90;;;;;;4990860;28;20053;-80
2022/03/01 10:20:16;;;;;;;43.20;39.25;;;5.50;99.90;;;;;;4989949;28;20632;-78
2022/03/01 10:22:45;;;;;;;44.33;40.40;;;5.30;99.90;;;;;;4974314;28;20058;-79
2022/03/01 10:25:13;;;;;;;37.10;33.45;;;5.30;99.90;;;;;;4975386;28;20062;-82
2022/03/01 10:27:43;;;;;;;40.22;36.08;;;5.30;99.90;;;;;;4995724;28;20481;-81
2022/03/01 10:30:11;;;;;;;38.55;34.83;;;5.30;99.90;;;;;;4991475;28;20060;-81
2022/03/01 10:32:38;;;;;;;38.55;34.70;;;5.70;99.90;;;;;;4996977;28;20038;-83
2022/03/01 10:35:09;;;;;;;39.58;35.65;;;6.20;99.90;;;;;;4989760;28;20054;-81
2022/03/01 10:37:38;;;;;;;37.95;34.35;;;6.40;99.90;;;;;;4972763;28;20073;-78
2022/03/01 10:40:24;;;;;;;37.22;33.53;;;6.40;99.90;;;;;;5004893;28;20054;-84
2022/03/01 10:43:11;;;;;;;;;;;6.60;99.90;;;;;;4987553;28;20100;-80
2022/03/01 10:45:51;;;;;;;37.20;33.70;;;6.30;99.90;;;;;;4991033;28;19925;-81
2022/03/01 10:48:30;;;;;;;37.13;33.33;;;6.20;99.90;;;;;;4984719;28;20049;-79
2022/03/01 10:51:05;;;;;;;35.40;31.98;;;6.50;99.90;;;;;;5013390;28;20468;-80
2022/03/01 10:53:34;;;;;;;38.80;34.75;;;6.50;99.90;;;;;;5020757;28;20119;-83
2022/03/01 10:56:04;;;;;;;37.92;34.17;;;6.30;99.90;;;;;;5027269;28;20049;-81
2022/03/01 10:58:32;;;;;;;38.80;35.00;;;6.30;99.90;;;;;;5010847;28;20060;-79
2022/03/01 11:00:59;;;;;;;36.60;33.22;;;6.30;99.90;;;;;;4996708;28;20097;-82
2022/03/01 11:03:26;;;;;;;37.65;34.70;;;6.50;99.90;;;;;;5000624;28;20049;-81
2022/03/01 11:05:54;;;;;;;39.47;35.60;;;6.30;99.90;;;;;;5006923;28;20050;-80
2022/03/01 11:08:46;;;;;;;38.45;35.17;;;6.30;99.90;;;;;;4991256;28;20547;-83
2022/03/01 11:11:12;;;;;;;37.40;33.92;;;6.40;99.90;;;;;;5011808;28;20049;-81
2022/03/01 11:13:44;;;;;;;37.25;33.83;;;6.50;99.90;;;;;;5017157;28;20049;-81
2022/03/01 11:16:43;;;;;;;38.70;35.22;;;6.70;99.90;;;;;;5010333;28;20049;-81
2022/03/01 11:19:12;;;;;;;38.08;34.35;;;7.00;99.90;;;;;;4999142;28;20216;-81
2022/03/01 11:21:44;;;;;;;36.05;32.67;;;7.10;99.90;;;;;;4992605;28;20056;-82
2022/03/01 11:24:16;;;;;;;37.42;33.83;;;7.30;99.90;;;;;;5010747;28;20061;-85
2022/03/01 11:26:44;;;;;;;37.10;33.80;;;7.20;99.90;;;;;;5009507;28;20532;-86
2022/03/01 11:29:13;;;;;;;36.90;33.40;;;7.40;99.90;;;;;;5011495;28;20447;-80
2022/03/01 11:31:42;;;;;;;36.25;32.90;;;7.40;99.90;;;;;;5005298;28;20086;-81
2022/03/01 11:34:15;;;;;;;36.08;32.42;;;7.60;99.90;;;;;;5006146;28;20049;-82
2022/03/01 11:36:56;;;;;;;34.92;31.45;;;7.50;99.90;;;;;;5007043;28;20088;-82
2022/03/01 11:39:28;;;;;;;41.42;37.70;;;7.60;99.90;;;;;;5024918;28;20061;-81
2022/03/01 11:42:07;;;;;;;40.45;36.50;;;7.40;99.90;;;;;;4981056;28;20521;-82
2022/03/01 11:44:36;;;;;;;41.58;37.63;;;7.40;99.90;;;;;;4977006;28;20133;-80
2022/03/01 11:47:07;;;;;;;41.63;37.45;;;7.60;99.90;;;;;;4986681;28;20057;-81
2022/03/01 11:49:37;;;;;;;42.17;38.55;;;7.60;99.90;;;;;;4990601;28;20061;-84
2022/03/01 11:52:05;;;;;;;40.53;37.25;;;7.60;99.90;;;;;;5006423;28;20095;-85
2022/03/01 11:54:36;;;;;;;45.42;41.05;;;7.80;99.90;;;;;;5023543;28;20058;-84
2022/03/01 11:57:07;;;;;;;41.30;37.83;;;7.90;99.90;;;;;;5006298;28;20467;-83
2022/03/01 11:59:37;;;;;;;41.13;37.53;;;8.00;99.90;;;;;;5003718;28;20052;-82
2022/03/01 12:02:17;;;;;;;39.67;36.03;;;8.00;99.90;;;;;;4993484;28;20048;-80
2022/03/01 12:04:50;;;;;;;40.45;36.90;;;7.80;99.90;;;;;;5026528;28;20056;-84
2022/03/01 12:07:30;;;;;;;38.42;35.35;;;7.80;99.90;;;;;;5010056;28;20042;-81
2022/03/01 12:10:05;;;;;;;42.40;38.35;;;7.50;99.90;;;;;;5009254;28;20628;-81
2022/03/01 12:12:35;;;;;;;41.03;37.35;;;7.40;99.90;;;;;;4989200;28;20497;-84
2022/03/01 12:15:07;;;;;;;40.92;37.42;;;7.40;99.90;;;;;;4985271;28;20054;-84
2022/03/01 12:17:45;;;;;;;41.38;37.67;;;7.50;99.90;;;;;;5008382;28;20045;-85
2022/03/01 12:20:17;;;;;;;41.22;37.50;;;7.50;99.90;;;;;;5007620;28;20058;-81
2022/03/01 12:22:59;;;;;;;40.35;36.63;;;7.50;99.90;;;;;;5026175;28;20092;-81
2022/03/01 12:25:31;;;;;;;40.80;37.13;;;7.40;99.90;;;;;;4992312;28;20049;-83
2022/03/01 12:28:01;;;;;;;40.08;36.50;;;7.50;99.90;;;;;;5025651;28;20862;-80
2022/03/01 12:30:30;;;;;;;39.42;36.03;;;7.70;99.90;;;;;;4987738;28;20041;-79
2022/03/01 12:32:58;;;;;;;41.03;37.45;;;7.70;99.90;;;;;;4999286;28;20050;-84
2022/03/01 12:35:27;;;;;;;38.75;35.47;;;7.80;99.90;;;;;;4995353;28;20061;-82
2022/03/01 12:38:09;;;;;;;41.92;38.13;;;7.90;99.90;;;;;;5004694;28;20053;-80
2022/03/01 12:40:37;;;;;;;40.00;36.72;;;8.00;99.90;;;;;;5002905;28;20049;-83